createdAt,value
2018-03-03T00:00:36.108Z,116.90
2018-03-03T00:03:04.392Z,106.57
2018-03-03T00:05:32.657Z,122.57
2018-03-03T00:08:00.930Z,111.00
2018-03-03T00:10:29.194Z,122.15
2018-03-03T00:12:57.461Z,115.85
2018-03-03T00:15:25.729Z,105.10
2018-03-03T00:17:54.004Z,111.25
2018-03-03T00:20:22.254Z,125.15
2018-03-03T00:22:51.316Z,118.78
2018-03-03T00:25:19.570Z,112.97
2018-03-03T00:27:47.828Z,114.37
2018-03-03T00:30:16.094Z,120.00
2018-03-03T00:32:44.358Z,121.93
2018-03-03T00:35:13.387Z,122.65
2018-03-03T00:37:41.643Z,119.93
2018-03-03T00:40:09.907Z,122.35
2018-03-03T00:42:38.171Z,135.88
2018-03-03T00:45:07.211Z,136.05
2018-03-03T00:47:35.482Z,124.40
2018-03-03T00:50:03.749Z,127.22
2018-03-03T00:52:32.004Z,128.23
2018-03-03T00:55:01.056Z,118.97
2018-03-03T00:57:29.307Z,122.90
2018-03-03T00:59:57.574Z,152.35
2018-03-03T01:02:25.835Z,134.35
2018-03-03T01:04:54.113Z,130.45
2018-03-03T01:07:22.374Z,130.37
2018-03-03T01:09:51.416Z,146.75
2018-03-03T01:12:19.680Z,138.80
2018-03-03T01:14:47.976Z,134.70
2018-03-03T01:17:16.234Z,129.25
2018-03-03T01:19:44.513Z,146.35
2018-03-03T01:22:12.778Z,136.27
2018-03-03T01:24:41.036Z,124.22
2018-03-03T01:27:09.291Z,145.25
2018-03-03T01:29:38.319Z,141.05
2018-03-03T01:32:06.579Z,137.52
2018-03-03T01:34:34.850Z,132.82
2018-03-03T01:37:03.118Z,137.25
2018-03-03T01:39:32.151Z,142.93
2018-03-03T01:42:00.408Z,151.00
2018-03-03T01:44:28.695Z,149.82
2018-03-03T01:46:56.979Z,159.48
2018-03-03T01:49:25.263Z,142.70
2018-03-03T01:51:53.560Z,153.40
2018-03-03T01:54:21.871Z,130.98
2018-03-03T01:56:50.189Z,139.32
2018-03-03T01:59:18.480Z,154.10
2018-03-03T02:01:46.779Z,128.98
2018-03-03T02:04:15.110Z,143.05
2018-03-03T02:06:43.433Z,131.75
2018-03-03T02:09:11.725Z,134.43
2018-03-03T02:11:40.004Z,144.35
2018-03-03T02:14:08.336Z,135.73
2018-03-03T02:16:36.655Z,141.82
2018-03-03T02:19:05.826Z,145.90
2018-03-03T02:21:34.125Z,133.40
2018-03-03T02:24:03.201Z,161.82
2018-03-03T02:26:31.523Z,145.65
2018-03-03T02:28:59.834Z,165.65
2018-03-03T02:31:28.112Z,153.27
2018-03-03T02:33:56.409Z,143.25
2018-03-03T02:36:24.677Z,148.93
2018-03-03T02:38:53.000Z,148.18
2018-03-03T02:41:21.352Z,148.10
2018-03-03T02:43:49.682Z,152.80
2018-03-03T02:46:17.975Z,152.87
2018-03-03T02:48:46.296Z,147.05
2018-03-03T02:51:14.608Z,136.65
2018-03-03T02:53:42.914Z,133.27
2018-03-03T02:56:11.223Z,136.62
2018-03-03T02:58:40.277Z,147.40
2018-03-03T03:01:08.585Z,147.40
2018-03-03T03:03:37.641Z,127.45
2018-03-03T03:06:05.936Z,142.60
2018-03-03T03:08:34.240Z,123.65
2018-03-03T03:11:03.315Z,140.52
2018-03-03T03:13:31.651Z,152.52
2018-03-03T03:15:59.971Z,139.20
2018-03-03T03:18:28.283Z,137.93
2018-03-03T03:20:56.581Z,131.48
2018-03-03T03:23:24.910Z,128.35
2018-03-03T03:25:53.237Z,128.90
2018-03-03T03:28:21.613Z,132.50
2018-03-03T03:30:49.939Z,141.37
2018-03-03T03:33:19.076Z,130.52
2018-03-03T03:35:47.402Z,124.62
2018-03-03T03:38:15.715Z,132.90
2018-03-03T03:40:44.006Z,130.52
2018-03-03T03:43:12.399Z,131.20
2018-03-03T03:45:40.709Z,147.95
2018-03-03T03:48:09.780Z,137.05
2018-03-03T03:50:38.107Z,134.82
2018-03-03T03:53:07.171Z,136.90
2018-03-03T03:55:35.491Z,137.07
2018-03-03T03:58:03.765Z,135.43
2018-03-03T04:00:32.065Z,144.87
2018-03-03T04:03:00.372Z,129.10
2018-03-03T04:05:28.687Z,133.07
2018-03-03T04:07:56.997Z,140.25
2018-03-03T04:10:25.293Z,117.18
2018-03-03T04:12:53.596Z,123.87
2018-03-03T04:15:22.673Z,138.45
2018-03-03T04:17:50.973Z,129.73
2018-03-03T04:20:20.032Z,133.12
2018-03-03T04:22:48.344Z,132.82
2018-03-03T04:25:16.699Z,124.60
2018-03-03T04:27:45.022Z,129.10
2018-03-03T04:30:13.346Z,144.70
2018-03-03T04:32:41.677Z,123.20
2018-03-03T04:35:10.057Z,118.78
2018-03-03T04:37:39.131Z,117.30
2018-03-03T04:40:07.443Z,115.07
2018-03-03T04:42:35.723Z,119.15
2018-03-03T04:45:04.035Z,117.80
2018-03-03T04:47:32.406Z,105.15
2018-03-03T04:50:00.691Z,126.15
2018-03-03T04:52:28.983Z,122.62
2018-03-03T04:54:58.069Z,121.40
2018-03-03T04:57:26.380Z,117.60
2018-03-03T05:00:00.092Z,123.32
2018-03-03T05:02:29.177Z,131.12
2018-03-03T05:04:59.287Z,131.25
2018-03-03T05:07:33.984Z,111.62
2018-03-03T05:10:02.277Z,115.00
2018-03-03T05:12:33.705Z,125.15
2018-03-03T05:18:11.260Z,112.25
2018-03-03T05:20:45.020Z,121.10
2018-03-03T05:26:22.879Z,125.68
2018-03-03T05:28:56.740Z,103.82
2018-03-03T05:34:37.201Z,112.65
2018-03-03T05:37:10.864Z,114.82
2018-03-03T05:39:45.387Z,118.28
2018-03-03T05:42:19.846Z,115.03
2018-03-03T05:47:56.811Z,117.82
2018-03-03T05:50:26.114Z,123.10
2018-03-03T05:52:58.080Z,120.40
2018-03-03T05:55:29.350Z,120.45
2018-03-03T06:01:12.025Z,122.03
2018-03-03T06:03:45.670Z,114.53
2018-03-03T06:06:13.931Z,116.50
2018-03-03T06:08:43.502Z,115.72
2018-03-03T06:11:11.771Z,114.43
2018-03-03T06:13:40.026Z,118.72
2018-03-03T06:16:08.294Z,129.30
2018-03-03T06:18:36.562Z,101.00
2018-03-03T06:21:04.845Z,110.28
2018-03-03T06:23:33.104Z,99.78
2018-03-03T06:26:01.359Z,101.82
2018-03-03T06:28:30.387Z,101.78
2018-03-03T06:30:58.647Z,102.50
2018-03-03T06:33:26.933Z,105.85
2018-03-03T06:35:55.199Z,104.72
2018-03-03T06:38:23.494Z,108.10
2018-03-03T06:40:51.752Z,108.53
2018-03-03T06:43:20.035Z,104.75
2018-03-03T06:45:48.315Z,104.38
2018-03-03T06:48:16.670Z,117.57
2018-03-03T06:50:45.689Z,113.20
2018-03-03T06:53:13.970Z,109.28
2018-03-03T06:55:42.244Z,101.80
2018-03-03T06:58:10.509Z,111.15
2018-03-03T07:00:38.812Z,107.85
2018-03-03T07:03:07.030Z,96.63
2018-03-03T07:05:36.063Z,114.32
2018-03-03T07:08:04.337Z,97.43
2018-03-03T07:10:32.596Z,104.90
2018-03-03T07:13:00.868Z,100.45
2018-03-03T07:15:29.133Z,96.60
2018-03-03T07:17:58.175Z,105.97
2018-03-03T07:20:26.459Z,103.95
2018-03-03T07:22:54.718Z,94.93
2018-03-03T07:25:23.000Z,100.38
2018-03-03T07:27:51.260Z,103.10
2018-03-03T07:30:19.533Z,99.57
2018-03-03T07:32:47.796Z,103.68
2018-03-03T07:35:16.091Z,102.82
2018-03-03T07:37:44.349Z,93.22
2018-03-03T07:40:12.612Z,109.18
2018-03-03T07:42:41.634Z,99.68
2018-03-03T07:45:10.929Z,116.85
2018-03-03T07:47:39.186Z,109.53
2018-03-03T07:50:07.474Z,117.82
2018-03-03T07:52:35.736Z,107.53
2018-03-03T07:55:04.006Z,110.57
2018-03-03T07:57:32.272Z,96.68
2018-03-03T08:00:01.316Z,103.25
2018-03-03T08:02:29.592Z,98.10
2018-03-03T08:04:57.868Z,96.35
2018-03-03T08:07:26.120Z,90.90
2018-03-03T08:09:54.403Z,105.80
2018-03-03T08:12:22.666Z,98.37
2018-03-03T08:14:50.933Z,100.68
2018-03-03T08:17:19.204Z,114.45
2018-03-03T08:19:47.491Z,92.07
2018-03-03T08:22:15.768Z,90.53
2018-03-03T08:24:44.038Z,105.32
2018-03-03T08:27:12.309Z,106.95
2018-03-03T08:29:40.572Z,106.93
2018-03-03T08:32:09.611Z,102.80
2018-03-03T08:34:37.909Z,111.78
2018-03-03T08:37:06.955Z,106.12
2018-03-03T08:39:35.222Z,103.15
2018-03-03T08:42:04.262Z,114.57
2018-03-03T08:44:32.560Z,105.75
2018-03-03T08:47:00.848Z,104.35
2018-03-03T08:49:29.105Z,105.10
2018-03-03T08:51:57.401Z,104.38
2018-03-03T08:54:25.650Z,103.95
2018-03-03T08:56:53.911Z,112.00
2018-03-03T08:59:22.209Z,102.45
2018-03-03T09:01:50.469Z,116.35
2018-03-03T09:04:18.742Z,102.18
2018-03-03T09:06:47.005Z,93.97
2018-03-03T09:09:15.275Z,84.70
2018-03-03T09:11:43.562Z,97.40
2018-03-03T09:14:11.824Z,96.40
2018-03-03T09:16:40.097Z,102.70
2018-03-03T09:19:08.389Z,103.75
2018-03-03T09:21:36.678Z,96.72
2018-03-03T09:24:04.945Z,97.35
2018-03-03T09:26:33.214Z,108.80
2018-03-03T09:29:01.495Z,109.82
2018-03-03T09:31:29.775Z,112.00
2018-03-03T09:33:58.070Z,101.00
2018-03-03T09:36:26.336Z,104.53
2018-03-03T09:38:54.637Z,114.28
2018-03-03T09:41:22.968Z,111.55
2018-03-03T09:43:51.244Z,106.85
2018-03-03T09:46:19.512Z,106.37
2018-03-03T09:48:47.785Z,110.65
2018-03-03T09:51:16.048Z,105.03
2018-03-03T09:53:44.319Z,97.82
2018-03-03T09:56:12.575Z,99.28
2018-03-03T09:58:41.611Z,109.03
2018-03-03T10:01:09.880Z,96.60
2018-03-03T10:03:38.147Z,105.80
2018-03-03T10:06:06.424Z,99.47
2018-03-03T10:08:34.684Z,93.50
2018-03-03T10:11:03.794Z,102.43
2018-03-03T10:13:32.059Z,95.90
2018-03-03T10:16:01.095Z,113.03
2018-03-03T10:18:29.355Z,100.65
2018-03-03T10:20:57.615Z,91.27
2018-03-03T10:23:25.871Z,95.50
2018-03-03T10:25:54.890Z,89.93
2018-03-03T10:28:23.141Z,95.23
2018-03-03T10:30:52.178Z,106.43
2018-03-03T10:33:20.430Z,90.23
2018-03-03T10:35:48.699Z,102.57
2018-03-03T10:38:16.951Z,98.27
2018-03-03T10:40:45.207Z,97.50
2018-03-03T10:43:13.457Z,98.10
2018-03-03T10:45:41.710Z,99.97
2018-03-03T10:48:09.995Z,84.87
2018-03-03T10:50:38.311Z,97.60
2018-03-03T10:53:06.514Z,94.33
2018-03-03T10:55:35.531Z,97.47
2018-03-03T10:58:03.786Z,92.80
2018-03-03T11:00:32.814Z,103.53
2018-03-03T11:03:01.061Z,98.47
2018-03-03T11:05:29.308Z,97.40
2018-03-03T11:07:57.562Z,102.50
2018-03-03T11:10:25.862Z,106.27
2018-03-03T11:12:54.070Z,99.10
2018-03-03T11:15:22.309Z,99.43
2018-03-03T11:17:50.563Z,102.40
2018-03-03T11:20:18.805Z,97.17
2018-03-03T11:22:47.070Z,103.07
2018-03-03T11:25:16.089Z,96.50
2018-03-03T11:27:44.370Z,94.83
2018-03-03T11:30:12.652Z,99.13
2018-03-03T11:32:40.901Z,95.53
2018-03-03T11:35:09.158Z,101.37
2018-03-03T11:37:38.189Z,105.17
2018-03-03T11:40:06.435Z,96.53
2018-03-03T11:42:34.682Z,97.60
2018-03-03T11:45:02.948Z,98.27
2018-03-03T11:47:31.199Z,93.83
2018-03-03T11:49:59.441Z,104.97
2018-03-03T11:52:27.706Z,107.83
2018-03-03T11:54:55.958Z,105.13
2018-03-03T11:57:24.215Z,110.93
2018-03-03T11:59:52.468Z,105.93
2018-03-03T12:02:20.730Z,108.07
2018-03-03T12:04:48.989Z,102.07
2018-03-03T12:07:17.242Z,106.83
2018-03-03T12:09:46.254Z,97.60
2018-03-03T12:12:14.521Z,100.83
2018-03-03T12:14:43.560Z,108.87
2018-03-03T12:17:12.026Z,97.10
2018-03-03T12:19:40.286Z,103.00
2018-03-03T12:22:08.552Z,99.60
2018-03-03T12:24:36.794Z,89.90
2018-03-03T12:27:05.061Z,101.47
2018-03-03T12:29:33.322Z,94.70
2018-03-03T12:32:01.579Z,95.43
2018-03-03T12:34:29.851Z,89.97
2018-03-03T12:36:58.098Z,98.47
2018-03-03T12:39:27.120Z,98.70
2018-03-03T12:41:55.382Z,105.57
2018-03-03T12:44:23.627Z,100.87
2018-03-03T12:46:51.883Z,96.00
2018-03-03T12:49:20.150Z,105.33
2018-03-03T12:51:49.169Z,108.40
2018-03-03T12:54:17.425Z,99.23
2018-03-03T12:56:45.684Z,102.07
2018-03-03T12:59:13.947Z,93.40
2018-03-03T13:01:42.197Z,105.23
2018-03-03T13:04:10.455Z,107.00
2018-03-03T13:06:38.706Z,94.50
2018-03-03T13:09:06.966Z,114.93
2018-03-03T13:11:35.215Z,96.03
2018-03-03T13:14:03.478Z,105.17
2018-03-03T13:16:31.727Z,103.07
2018-03-03T13:18:59.994Z,106.20
2018-03-03T13:21:28.247Z,103.43
2018-03-03T13:23:56.502Z,94.80
2018-03-03T13:26:24.745Z,101.00
2018-03-03T13:28:53.771Z,98.40
2018-03-03T13:31:22.028Z,106.70
2018-03-03T13:33:50.290Z,98.93
2018-03-03T13:36:19.305Z,90.77
2018-03-03T13:38:47.562Z,98.67
2018-03-03T13:41:16.572Z,96.80
2018-03-03T13:43:44.834Z,105.13
2018-03-03T13:46:13.091Z,109.27
2018-03-03T13:48:42.117Z,97.00
2018-03-03T13:51:10.376Z,104.07
2018-03-03T13:53:39.399Z,103.47
2018-03-03T13:56:07.658Z,112.03
2018-03-03T13:58:35.907Z,111.83
2018-03-03T14:01:04.956Z,104.83
2018-03-03T14:03:33.185Z,108.87
2018-03-03T14:06:02.200Z,108.50
2018-03-03T14:08:30.460Z,108.10
2018-03-03T14:10:59.480Z,101.13
2018-03-03T14:13:27.745Z,101.83
2018-03-03T14:15:55.999Z,103.77
2018-03-03T14:18:24.260Z,107.87
2018-03-03T14:20:53.281Z,112.57
2018-03-03T14:23:21.543Z,106.53
2018-03-03T14:25:49.825Z,107.70
2018-03-03T14:28:18.087Z,112.13
2018-03-03T14:30:46.337Z,102.00
2018-03-03T14:33:14.601Z,102.37
2018-03-03T14:35:42.854Z,104.87
2018-03-03T14:38:11.111Z,111.97
2018-03-03T14:40:39.369Z,98.13
2018-03-03T14:43:08.378Z,114.77
2018-03-03T14:45:36.695Z,104.40
2018-03-03T14:48:04.907Z,112.50
2018-03-03T14:50:33.165Z,102.40
2018-03-03T14:53:01.423Z,113.43
2018-03-03T14:55:29.696Z,109.50
2018-03-03T14:57:57.947Z,106.40
2018-03-03T15:00:26.220Z,108.57
2018-03-03T15:02:54.478Z,113.17
2018-03-03T15:05:22.730Z,110.97
2018-03-03T15:07:50.988Z,108.87
2018-03-03T15:10:19.245Z,115.17
2018-03-03T15:12:47.511Z,114.17
2018-03-03T15:15:15.762Z,109.77
2018-03-03T15:17:44.027Z,118.43
2018-03-03T15:20:12.288Z,113.53
2018-03-03T15:22:41.306Z,121.77
2018-03-03T15:25:09.563Z,112.43
2018-03-03T15:27:38.591Z,124.30
2018-03-03T15:30:06.834Z,126.23
2018-03-03T15:32:35.859Z,109.27
2018-03-03T15:35:04.115Z,116.03
2018-03-03T15:37:32.378Z,107.40
2018-03-03T15:40:00.624Z,115.63
2018-03-03T15:42:28.889Z,106.87
2018-03-03T15:44:57.142Z,117.97
2018-03-03T15:47:25.411Z,111.33
2018-03-03T15:49:53.671Z,111.90
2018-03-03T15:52:21.945Z,119.97
2018-03-03T15:54:50.208Z,121.23
2018-03-03T15:57:19.226Z,117.00
2018-03-03T15:59:47.477Z,105.43
2018-03-03T16:02:15.747Z,121.37
2018-03-03T16:04:44.770Z,122.30
2018-03-03T16:07:13.016Z,109.77
2018-03-03T16:09:41.270Z,124.13
2018-03-03T16:12:09.519Z,119.90
2018-03-03T16:14:37.792Z,131.30
2018-03-03T16:17:07.335Z,132.60
2018-03-03T16:19:34.311Z,122.20
2018-03-03T16:22:02.569Z,119.03
2018-03-03T16:24:30.844Z,126.45
2018-03-03T16:26:59.876Z,113.12
2018-03-03T16:29:28.147Z,143.68
2018-03-03T16:31:56.412Z,135.48
2018-03-03T16:34:24.681Z,123.80
2018-03-03T16:36:52.939Z,131.02
2018-03-03T16:39:22.090Z,136.98
2018-03-03T16:41:50.347Z,128.68
2018-03-03T16:44:18.611Z,127.72
2018-03-03T16:46:46.867Z,141.62
2018-03-03T16:49:15.930Z,124.57
2018-03-03T16:51:44.158Z,133.18
2018-03-03T16:54:12.431Z,130.63
2018-03-03T16:56:40.704Z,144.85
2018-03-03T16:59:08.982Z,133.50
2018-03-03T17:01:37.248Z,138.88
2018-03-03T17:04:05.509Z,141.90
2018-03-03T17:06:34.542Z,149.18
2018-03-03T17:09:02.803Z,140.32
2018-03-03T17:11:31.074Z,132.30
2018-03-03T17:13:59.337Z,138.10
2018-03-03T17:16:27.618Z,133.07
2018-03-03T17:18:55.872Z,142.07
2018-03-03T17:21:24.908Z,131.90
2018-03-03T17:23:53.180Z,132.00
2018-03-03T17:26:21.456Z,131.50
2018-03-03T17:28:49.729Z,137.80
2018-03-03T17:31:18.000Z,126.32
2018-03-03T17:33:46.263Z,142.15
2018-03-03T17:36:14.533Z,141.60
2018-03-03T17:38:43.554Z,128.00
2018-03-03T17:41:11.836Z,137.70
2018-03-03T17:43:39.403Z,130.87
2018-03-03T17:46:07.670Z,142.18
2018-03-03T17:48:35.955Z,132.12
2018-03-03T17:51:04.229Z,142.07
2018-03-03T17:53:32.506Z,117.70
2018-03-03T17:56:00.771Z,136.32
2018-03-03T17:58:29.029Z,134.60
2018-03-03T18:00:57.314Z,130.00
2018-03-03T18:03:25.573Z,130.68
2018-03-03T18:05:54.606Z,139.02
2018-03-03T18:08:22.867Z,153.62
2018-03-03T18:10:51.127Z,133.95
2018-03-03T18:13:37.195Z,138.57
2018-03-03T18:16:05.460Z,149.98
2018-03-03T18:18:33.723Z,129.50
2018-03-03T18:21:01.982Z,139.05
2018-03-03T18:23:30.241Z,136.68
2018-03-03T18:25:58.500Z,139.48
2018-03-03T18:28:26.772Z,152.23
2018-03-03T18:30:55.041Z,143.95
2018-03-03T18:33:24.078Z,133.77
2018-03-03T18:35:52.344Z,153.30
2018-03-03T18:38:20.622Z,141.30
2018-03-03T18:40:48.889Z,146.43
2018-03-03T18:43:17.150Z,146.13
2018-03-03T18:45:45.424Z,149.30
2018-03-03T18:48:13.691Z,148.90
2018-03-03T18:50:42.708Z,133.98
2018-03-03T18:53:10.966Z,146.95
2018-03-03T18:55:39.231Z,145.77
2018-03-03T18:58:08.262Z,133.77
2018-03-03T19:00:36.516Z,144.73
2018-03-03T19:03:04.816Z,156.40
2018-03-03T19:05:33.064Z,139.10
2018-03-03T19:08:01.341Z,142.02
2018-03-03T19:10:30.359Z,139.27
2018-03-03T19:12:58.631Z,150.12
2018-03-03T19:15:26.883Z,150.20
2018-03-03T19:17:55.160Z,135.88
2018-03-03T19:20:23.471Z,141.90
2018-03-03T19:22:51.764Z,143.25
2018-03-03T19:25:20.042Z,137.15
2018-03-03T19:27:48.317Z,137.45
2018-03-03T19:30:16.653Z,131.85
2018-03-03T19:32:44.949Z,143.93
2018-03-03T19:35:13.226Z,144.75
2018-03-03T19:37:41.487Z,125.47
2018-03-03T19:40:09.762Z,145.20
2018-03-03T19:42:38.033Z,140.90
2018-03-03T19:45:06.306Z,144.70
2018-03-03T19:47:34.616Z,159.30
2018-03-03T19:50:02.930Z,173.45
2018-03-03T19:52:32.030Z,130.43
2018-03-03T19:55:00.366Z,149.60
2018-03-03T19:57:28.658Z,131.10
2018-03-03T19:59:56.951Z,134.87
2018-03-03T20:02:25.262Z,137.05
2018-03-03T20:04:53.574Z,127.95
2018-03-03T20:07:21.854Z,122.25
2018-03-03T20:09:50.165Z,135.07
2018-03-03T20:12:18.490Z,112.53
2018-03-03T20:14:46.774Z,121.45
2018-03-03T20:17:15.086Z,126.82
2018-03-03T20:19:43.364Z,114.00
2018-03-03T20:22:12.434Z,122.75
2018-03-03T20:24:40.707Z,127.12
2018-03-03T20:27:09.046Z,118.57
2018-03-03T20:29:37.339Z,128.60
2018-03-03T20:32:05.656Z,121.50
2018-03-03T20:34:33.948Z,112.40
2018-03-03T20:37:02.221Z,118.93
2018-03-03T20:39:30.505Z,122.32
2018-03-03T20:41:58.778Z,99.25
2018-03-03T20:44:27.829Z,126.55
2018-03-03T20:46:56.100Z,126.55
2018-03-03T20:49:33.812Z,120.65
2018-03-03T20:52:02.175Z,117.00
2018-03-03T20:54:30.509Z,107.30
2018-03-03T20:56:58.843Z,108.45
2018-03-03T20:59:27.191Z,119.97
2018-03-03T21:01:55.546Z,125.00
2018-03-03T21:04:23.889Z,130.87
2018-03-03T21:06:52.250Z,120.93
2018-03-03T21:09:20.586Z,120.53
2018-03-03T21:12:00.634Z,127.50
2018-03-03T21:14:29.008Z,135.77
2018-03-03T21:16:57.363Z,123.25
2018-03-03T21:19:25.691Z,128.70
2018-03-03T21:21:54.053Z,128.60
2018-03-03T21:24:22.392Z,129.00
2018-03-03T21:26:51.507Z,123.85
2018-03-03T21:29:19.866Z,117.30
2018-03-03T21:31:48.173Z,124.72
2018-03-03T21:34:16.541Z,121.85
2018-03-03T21:36:44.857Z,132.73
2018-03-03T21:39:13.237Z,124.85
2018-03-03T21:41:41.543Z,116.85
2018-03-03T21:44:09.883Z,120.87
2018-03-03T21:46:38.215Z,122.75
2018-03-03T21:49:06.560Z,123.40
2018-03-03T21:51:34.916Z,121.65
2018-03-03T21:54:03.267Z,110.05
2018-03-03T21:56:32.374Z,129.52
2018-03-03T21:59:00.730Z,106.20
2018-03-03T22:01:29.108Z,114.57
2018-03-03T22:03:58.251Z,115.12
2018-03-03T22:06:26.611Z,105.22
2018-03-03T22:08:54.976Z,121.20
2018-03-03T22:11:23.332Z,112.57
2018-03-03T22:13:51.666Z,122.30
2018-03-03T22:16:20.028Z,117.30
2018-03-03T22:18:48.370Z,111.93
2018-03-03T22:21:17.488Z,107.97
2018-03-03T22:23:45.863Z,108.07
2018-03-03T22:26:14.251Z,118.10
2018-03-03T22:28:42.615Z,118.68
2018-03-03T22:31:10.955Z,107.75
2018-03-03T22:33:39.294Z,109.25
2018-03-03T22:36:07.644Z,112.20
2018-03-03T22:38:36.005Z,119.45
2018-03-03T22:41:04.359Z,105.63
2018-03-03T22:43:32.683Z,117.30
2018-03-03T22:46:01.034Z,105.60
2018-03-03T22:48:30.142Z,120.55
2018-03-03T22:50:59.248Z,120.70
2018-03-03T22:53:27.663Z,105.63
2018-03-03T22:55:56.032Z,111.53
2018-03-03T22:58:24.377Z,113.10
2018-03-03T23:00:52.747Z,123.40
2018-03-03T23:03:21.073Z,114.57
2018-03-03T23:05:49.491Z,118.05
2018-03-03T23:08:17.764Z,114.53
2018-03-03T23:10:46.887Z,118.13
2018-03-03T23:13:15.242Z,113.05
2018-03-03T23:15:44.275Z,111.70
2018-03-03T23:18:12.534Z,114.55
2018-03-03T23:20:40.810Z,116.95
2018-03-03T23:23:09.065Z,118.18
2018-03-03T23:25:38.095Z,114.72
2018-03-03T23:28:06.357Z,110.75
2018-03-03T23:30:34.613Z,103.43
2018-03-03T23:33:03.634Z,113.90
2018-03-03T23:35:31.907Z,116.20
2018-03-03T23:38:00.157Z,110.78
2018-03-03T23:40:29.189Z,102.20
2018-03-03T23:42:57.441Z,95.78
2018-03-03T23:45:25.719Z,107.85
2018-03-03T23:47:53.987Z,102.93
2018-03-03T23:50:22.252Z,122.78
2018-03-03T23:52:51.283Z,112.88
2018-03-03T23:55:19.552Z,109.72
2018-03-03T23:57:47.813Z,131.48
